Time;durP1;ratioP1;P1;durP2;ratioP2;P2;SDS_P1;SDS_P2;PMS_P1;PMS_P2;Temp;Humidity;BMP_temperature;BMP_pressure;BME280_temperature;BME280_humidity;BME280_pressure;Samples;Min_cycle;Max_cycle;Signal;HPM_P1;HPM_P2
2023/03/15 00:00:25;;;;;;;3.53;3.13;;;;;;;5.29;47.26;62547.44;5039493;28;20488;-77
2023/03/15 00:02:51;;;;;;;3.58;3.17;;;;;;;5.28;47.23;62538.84;5033323;28;20214;-78
2023/03/15 00:05:18;;;;;;;4.55;3.08;;;;;;;5.34;46.62;62547.53;5047968;28;20198;-78
2023/03/15 00:07:46;;;;;;;3.63;3.25;;;;;;;5.30;46.82;62548.97;5047744;28;20218;-78
2023/03/15 00:10:13;;;;;;;3.50;2.53;;;;;;;5.26;47.22;62542.34;5046842;28;20198;-78
2023/03/15 00:12:41;;;;;;;2.92;2.67;;;;;;;5.29;49.53;62545.44;5044777;28;20245;-79
2023/03/15 00:15:08;;;;;;;4.32;3.92;;;;;;;5.26;51.99;62542.34;5049499;28;20258;-78
2023/03/15 00:17:38;;;;;;;7.07;3.75;;;;;;;5.31;53.92;62550.03;5047167;28;20229;-78
2023/03/15 00:20:06;;;;;;;5.38;3.90;;;;;;;5.23;53.80;62536.22;5047626;28;20206;-79
2023/03/15 00:22:33;;;;;;;3.90;3.50;;;;;;;5.27;54.41;62542.84;5046059;28;20229;-78
2023/03/15 00:25:00;;;;;;;7.38;3.72;;;;;;;5.29;54.76;62545.44;5044719;28;20214;-78
2023/03/15 00:27:27;;;;;;;4.53;3.50;;;;;;;5.26;54.91;62544.34;5045348;28;20253;-79
2023/03/15 00:29:54;;;;;;;3.08;2.85;;;;;;;5.31;54.75;62549.50;5048186;28;20410;-77
2023/03/15 00:32:21;;;;;;;3.60;2.97;;;;;;;5.30;54.90;62546.47;5044018;28;20229;-79
2023/03/15 00:34:53;;;;;;;3.38;3.17;;;;;;;5.27;55.85;62540.84;5049381;28;20256;-78
2023/03/15 00:37:24;;;;;;;5.03;3.30;;;;;;;5.24;55.51;62539.75;5047070;28;20237;-78
2023/03/15 00:39:54;;;;;;;3.92;3.53;;;;;;;5.38;54.86;62552.19;5045132;28;20205;-78
2023/03/15 00:42:26;;;;;;;5.82;3.80;;;;;;;5.43;54.16;62554.28;5047157;28;20250;-78
2023/03/15 00:44:53;;;;;;;4.68;3.53;;;;;;;5.49;55.01;62563.50;5042404;28;20202;-78
2023/03/15 00:47:20;;;;;;;4.80;4.05;;;;;;;5.49;55.00;62563.00;5038266;28;20218;-78
2023/03/15 00:49:49;;;;;;;8.65;4.75;;;;;;;5.42;54.51;62561.34;5047222;28;20252;-78
2023/03/15 00:52:16;;;;;;;5.97;3.67;;;;;;;5.44;54.92;62560.38;5046997;28;20218;-80
2023/03/15 00:54:43;;;;;;;3.92;3.60;;;;;;;5.49;54.90;62568.03;5047153;28;20253;-79
2023/03/15 00:57:10;;;;;;;7.03;3.70;;;;;;;5.49;55.09;62560.97;5047977;28;20344;-78
2023/03/15 00:59:37;;;;;;;3.53;3.22;;;;;;;5.53;55.67;62570.16;5041015;28;20199;-79
2023/03/15 01:02:05;;;;;;;6.53;3.45;;;;;;;5.58;55.99;62572.78;5031431;28;20225;-79
2023/03/15 01:04:33;;;;;;;3.75;3.38;;;;;;;5.60;55.63;62574.31;5047304;28;20202;-79
2023/03/15 01:07:01;;;;;;;3.63;2.95;;;;;;;5.58;56.94;62575.31;5047604;28;20222;-80
2023/03/15 01:09:30;;;;;;;5.40;3.55;;;;;;;5.33;57.30;62549.53;5046827;28;20197;-79
2023/03/15 01:11:57;;;;;;;3.70;3.40;;;;;;;5.40;56.99;62553.72;5044426;28;20225;-77
2023/03/15 01:14:24;;;;;;;10.23;3.90;;;;;;;5.44;57.35;62562.88;5047772;28;20260;-79
2023/03/15 01:16:52;;;;;;;5.57;3.70;;;;;;;5.44;58.02;62555.31;5046067;28;20276;-79
2023/03/15 01:19:19;;;;;;;6.13;4.88;;;;;;;5.46;57.58;62562.94;5048911;28;20258;-79
2023/03/15 01:21:46;;;;;;;8.07;5.07;;;;;;;5.48;57.17;62567.53;5051812;28;20430;-78
2023/03/15 01:24:15;;;;;;;7.93;4.40;;;;;;;5.51;57.07;62568.09;5049286;28;20258;-79
2023/03/15 01:26:42;;;;;;;7.65;4.63;;;;;;;5.57;57.04;62573.78;5049761;28;20367;-78
2023/03/15 01:29:09;;;;;;;10.85;6.22;;;;;;;5.57;56.66;62574.28;5051844;28;20194;-80
2023/03/15 01:31:36;;;;;;;7.72;5.40;;;;;;;5.57;56.95;62574.28;5049036;28;20218;-80
2023/03/15 01:34:04;;;;;;;7.07;6.38;;;;;;;5.59;56.28;62573.81;5048602;28;20234;-79
2023/03/15 01:36:30;;;;;;;10.20;5.78;;;;;;;5.60;55.78;62576.84;5051957;28;20216;-78
2023/03/15 01:38:58;;;;;;;10.02;6.45;;;;;;;5.59;55.63;62578.84;5047973;28;20198;-78
2023/03/15 01:41:26;;;;;;;9.13;5.70;;;;;;;5.57;55.89;62576.28;5048630;28;20218;-78
2023/03/15 01:43:54;;;;;;;6.38;5.30;;;;;;;5.56;56.55;62570.19;5052865;28;20202;-79
2023/03/15 01:46:26;;;;;;;10.77;5.93;;;;;;;5.54;56.73;62571.19;5049861;28;20229;-79
2023/03/15 01:49:00;;;;;;;5.28;4.85;;;;;;;5.57;57.33;62574.28;5049104;28;20333;-79
2023/03/15 01:51:34;;;;;;;4.20;3.78;;;;;;;5.55;57.44;62572.22;5050295;28;20225;-79
2023/03/15 01:54:05;;;;;;;4.45;4.05;;;;;;;5.45;58.37;62561.91;5049565;28;20248;-79
2023/03/15 01:56:38;;;;;;;3.95;3.38;;;;;;;5.49;58.73;62563.50;5051641;28;20249;-79
2023/03/15 01:59:08;;;;;;;8.15;3.70;;;;;;;5.48;59.13;62559.44;5050987;28;20202;-79
2023/03/15 02:01:36;;;;;;;3.42;3.13;;;;;;;5.45;58.20;62564.44;5047931;28;20214;-79
2023/03/15 02:04:07;;;;;;;4.82;3.70;;;;;;;5.47;58.25;62563.97;5051283;28;20217;-78
2023/03/15 02:06:35;;;;;;;5.20;3.60;;;;;;;5.42;58.80;62558.81;5044504;28;20242;-78
2023/03/15 02:09:06;;;;;;;5.45;3.78;;;;;;;5.37;58.47;62551.16;5031048;28;20206;-78
2023/03/15 02:11:36;;;;;;;5.05;3.90;;;;;;;5.28;59.10;62546.41;5049659;28;20291;-78
2023/03/15 02:14:05;;;;;;;8.35;3.58;;;;;;;5.32;58.48;62550.53;5048965;28;20237;-77
2023/03/15 02:16:32;;;;;;;3.67;3.38;;;;;;;5.29;58.70;62542.38;5048972;28;20226;-78
2023/03/15 02:18:59;;;;;;;4.15;3.40;;;;;;;5.26;57.84;62539.81;5049956;28;20479;-78
2023/03/15 02:21:42;;;;;;;6.18;4.03;;;;;;;5.27;59.17;62545.91;5049629;28;20222;-79
2023/03/15 02:24:24;;;;;;;3.75;3.42;;;;;;;5.25;58.79;62538.25;5046543;28;20190;-78
2023/03/15 02:26:55;;;;;;;4.97;3.63;;;;;;;5.19;58.61;62537.66;5047420;28;20280;-78
2023/03/15 02:29:26;;;;;;;4.00;3.70;;;;;;;5.09;58.69;62524.81;5048270;28;20252;-79
2023/03/15 02:31:54;;;;;;;4.00;3.25;;;;;;;5.00;60.15;62515.06;5047611;28;20301;-78
2023/03/15 02:34:24;;;;;;;5.25;3.78;;;;;;;5.06;60.07;62523.75;5047717;28;20528;-77
2023/03/15 02:36:52;;;;;;;4.28;3.70;;;;;;;5.10;59.69;62528.38;5049428;28;20222;-79
2023/03/15 02:39:21;;;;;;;4.25;3.55;;;;;;;5.09;60.39;62524.81;5046818;28;20202;-78
2023/03/15 02:41:53;;;;;;;4.13;3.55;;;;;;;5.06;61.20;62524.25;5049098;28;20637;-78
2023/03/15 02:44:27;;;;;;;7.85;4.78;;;;;;;5.09;59.90;62524.81;5046463;28;20202;-78
2023/03/15 02:46:56;;;;;;;10.18;4.45;;;;;;;5.05;60.00;62515.16;5048761;28;20466;-78
2023/03/15 02:49:27;;;;;;;4.13;3.72;;;;;;;5.00;61.12;62513.06;5051087;28;20204;-79
2023/03/15 02:51:54;;;;;;;7.60;4.40;;;;;;;5.05;61.57;62520.19;5047630;28;20248;-78
2023/03/15 02:54:21;;;;;;;5.63;4.53;;;;;;;4.96;61.80;62508.91;5048431;28;20238;-78
2023/03/15 02:56:48;;;;;;;5.30;4.25;;;;;;;4.91;61.25;62501.25;5050271;28;20214;-78
2023/03/15 02:59:15;;;;;;;7.53;4.28;;;;;;;4.88;61.06;62500.69;5048512;28;20206;-79
2023/03/15 03:01:44;;;;;;;6.03;4.50;;;;;;;4.86;61.19;62500.63;5044280;28;20248;-79
2023/03/15 03:04:11;;;;;;;4.70;4.30;;;;;;;4.76;62.31;62490.34;5047592;28;20218;-78
2023/03/15 03:06:38;;;;;;;6.15;4.68;;;;;;;4.71;62.45;62486.22;5049800;28;20264;-79
2023/03/15 03:09:05;;;;;;;10.77;6.20;;;;;;;4.69;62.40;62486.69;5047225;28;20264;-79
2023/03/15 03:11:32;;;;;;;10.23;7.57;;;;;;;4.64;62.69;62476.00;5047597;28;20240;-79
2023/03/15 03:13:59;;;;;;;7.45;5.93;;;;;;;4.60;62.64;62469.88;5047917;28;20296;-80
2023/03/15 03:16:27;;;;;;;8.20;6.57;;;;;;;4.59;63.31;62468.81;5047834;28;20221;-78
2023/03/15 03:18:55;;;;;;;5.32;4.82;;;;;;;4.56;64.02;62468.25;5047078;28;20201;-79
2023/03/15 03:21:22;;;;;;;6.97;4.90;;;;;;;4.50;64.34;62461.56;5047719;28;20556;-78
2023/03/15 03:23:48;;;;;;;5.47;4.50;;;;;;;4.60;62.88;62476.91;5048883;28;20491;-78
2023/03/15 03:26:18;;;;;;;6.50;3.67;;;;;;;4.55;63.21;62466.72;5049001;28;20576;-79
2023/03/15 03:28:47;;;;;;;7.18;4.95;;;;;;;4.41;63.94;62452.31;5044967;28;20205;-79
2023/03/15 03:31:20;;;;;;;6.32;4.15;;;;;;;4.35;63.75;62451.16;5047618;28;20267;-78
2023/03/15 03:33:47;;;;;;;5.05;4.22;;;;;;;4.44;64.54;62460.44;5048834;28;20202;-78
2023/03/15 03:36:16;;;;;;;5.55;4.85;;;;;;;4.54;64.17;62471.25;5047092;28;20621;-78
2023/03/15 03:38:44;;;;;;;4.30;3.95;;;;;;;4.59;63.81;62473.38;5043286;28;20198;-79
2023/03/15 03:41:13;;;;;;;8.95;5.03;;;;;;;4.64;63.20;62478.50;5049565;28;20265;-78
2023/03/15 03:43:40;;;;;;;4.68;4.28;;;;;;;4.69;62.82;62481.13;5033719;28;20218;-78
2023/03/15 03:46:07;;;;;;;5.45;4.43;;;;;;;4.67;62.97;62484.13;5028074;28;20511;-79
2023/03/15 03:48:35;;;;;;;8.25;4.80;;;;;;;4.65;65.53;62482.06;5044927;28;20209;-80
2023/03/15 03:51:02;;;;;;;7.13;4.68;;;;;;;4.78;65.19;62492.41;5046976;28;20225;-79
2023/03/15 03:53:31;;;;;;;6.60;5.07;;;;;;;4.78;64.47;62487.34;5048845;28;20265;-79
2023/03/15 03:55:58;;;;;;;8.35;5.47;;;;;;;4.86;64.01;62495.59;5046479;28;20291;-78
2023/03/15 03:58:24;;;;;;;6.30;5.68;;;;;;;4.81;62.34;62493.47;5046403;28;20194;-78
2023/03/15 04:00:53;;;;;;;6.45;4.32;;;;;;;4.89;62.80;62503.72;5045205;28;20237;-79
2023/03/15 04:03:26;;;;;;;6.57;5.18;;;;;;;4.92;63.40;62501.78;5048107;28;20221;-79
2023/03/15 04:05:53;;;;;;;6.80;4.40;;;;;;;4.99;63.42;62514.03;5046715;28;20209;-78
2023/03/15 04:08:21;;;;;;;4.90;4.45;;;;;;;4.95;64.51;62507.91;5048546;28;20202;-78
2023/03/15 04:10:52;;;;;;;4.82;3.70;;;;;;;5.03;65.75;62513.09;5044715;28;20202;-79
2023/03/15 04:13:20;;;;;;;4.18;3.80;;;;;;;5.00;67.32;62510.53;5045894;28;20472;-78
2023/03/15 04:15:48;;;;;;;4.90;3.60;;;;;;;4.81;67.42;62492.97;5047278;28;20222;-79
2023/03/15 04:18:15;;;;;;;5.85;3.50;;;;;;;4.67;67.81;62479.06;5047537;28;20288;-78
2023/03/15 04:20:45;;;;;;;3.50;3.20;;;;;;;4.77;65.52;62488.84;5047446;28;20202;-78
2023/03/15 04:23:13;;;;;;;4.13;3.28;;;;;;;4.80;64.10;62494.47;5046467;28;20222;-78
2023/03/15 04:25:40;;;;;;;4.60;4.20;;;;;;;4.84;63.68;62496.06;5044791;28;20213;-78
2023/03/15 04:28:10;;;;;;;4.00;3.55;;;;;;;4.87;63.20;62499.16;5044635;28;20221;-79
2023/03/15 04:30:37;;;;;;;3.97;3.67;;;;;;;4.92;65.13;62506.81;5034561;28;20199;-78
2023/03/15 04:33:05;;;;;;;3.10;2.75;;;;;;;4.96;63.64;62510.94;5043232;28;20225;-79
2023/03/15 04:35:34;;;;;;;3.90;3.60;;;;;;;4.93;63.30;62505.84;5045862;28;20226;-78
2023/03/15 04:38:03;;;;;;;5.13;4.38;;;;;;;4.97;63.84;62512.47;5046256;28;20221;-77
2023/03/15 04:40:33;;;;;;;5.13;4.25;;;;;;;5.01;64.25;62519.13;5044128;28;20280;-78
2023/03/15 04:43:03;;;;;;;4.38;4.05;;;;;;;5.03;64.98;62518.66;5046251;28;20249;-78
2023/03/15 04:45:32;;;;;;;4.47;4.10;;;;;;;5.05;66.47;62520.19;5046580;28;20534;-79
2023/03/15 04:48:00;;;;;;;6.22;4.22;;;;;;;5.12;65.46;62527.41;5045088;28;20239;-79
2023/03/15 04:50:28;;;;;;;10.77;5.85;;;;;;;5.04;65.39;62517.16;5044593;28;20263;-79
2023/03/15 04:52:58;;;;;;;8.57;5.15;;;;;;;5.04;65.51;62517.16;5047064;28;20530;-79
2023/03/15 04:55:25;;;;;;;13.40;8.10;;;;;;;5.05;64.91;62520.72;5047528;28;20230;-79
2023/03/15 04:57:52;;;;;;;11.90;7.82;;;;;;;5.17;62.58;62530.03;5042943;28;20248;-78
2023/03/15 05:00:20;;;;;;;12.55;9.05;;;;;;;5.16;62.51;62529.00;5042564;28;20202;-79
2023/03/15 05:02:53;;;;;;;9.50;7.90;;;;;;;5.08;63.73;62523.28;5045337;28;20249;-79
2023/03/15 05:05:22;;;;;;;9.43;6.07;;;;;;;4.98;67.41;62513.50;5026637;28;20202;-78
2023/03/15 05:07:50;;;;;;;9.88;7.07;;;;;;;5.03;68.42;62516.13;5046195;28;20237;-78
2023/03/15 05:10:18;;;;;;;11.57;6.72;;;;;;;5.09;65.98;62519.78;5029001;28;20202;-79
2023/03/15 05:12:45;;;;;;;8.90;6.70;;;;;;;4.98;67.75;62507.94;5026567;28;20218;-79
2023/03/15 05:15:13;;;;;;;14.02;7.85;;;;;;;5.12;65.20;62527.94;5030709;28;20284;-78
2023/03/15 05:17:40;;;;;;;14.05;7.10;;;;;;;5.07;65.59;62519.75;5045961;28;20218;-79
2023/03/15 05:20:10;;;;;;;12.85;7.63;;;;;;;4.86;68.26;62498.63;5046496;28;20201;-80
2023/03/15 05:22:38;;;;;;;17.95;7.25;;;;;;;4.90;69.18;62502.25;5046796;28;20281;-77
2023/03/15 05:25:06;;;;;;;7.93;6.65;;;;;;;5.00;69.23;62510.53;5043367;28;20280;-79
2023/03/15 05:27:33;;;;;;;15.30;6.88;;;;;;;5.00;70.14;62513.06;5044365;28;20222;-78
2023/03/15 05:30:02;;;;;;;15.35;9.15;;;;;;;5.17;69.70;62535.59;5045712;28;20194;-78
2023/03/15 05:32:33;;;;;;;17.00;9.85;;;;;;;5.17;70.05;62532.56;5044825;28;20566;-78
2023/03/15 05:35:00;;;;;;;16.50;9.52;;;;;;;5.21;69.66;62537.19;5042292;28;20429;-76
2023/03/15 05:37:28;;;;;;;17.60;9.32;;;;;;;5.13;67.02;62523.38;5040236;28;20410;-77
2023/03/15 05:39:56;;;;;;;17.80;10.82;;;;;;;5.12;67.47;62527.94;5042858;28;20207;-77
2023/03/15 05:42:25;;;;;;;18.08;10.27;;;;;;;5.30;66.35;62548.97;5042231;28;20233;-79
2023/03/15 05:44:53;;;;;;;15.82;10.13;;;;;;;5.35;65.25;62546.56;5042925;28;20240;-81
2023/03/15 05:47:20;;;;;;;23.08;10.73;;;;;;;5.23;65.91;62538.75;5045807;28;20224;-80
2023/03/15 05:49:48;;;;;;;17.88;10.85;;;;;;;5.10;66.98;62522.81;5042388;28;20225;-79
2023/03/15 05:52:15;;;;;;;20.38;10.77;;;;;;;5.32;66.59;62545.47;5042314;28;20531;-80
2023/03/15 05:54:43;;;;;;;21.95;11.15;;;;;;;5.43;66.44;62556.81;5047229;28;20234;-80
2023/03/15 05:57:12;;;;;;;20.58;10.68;;;;;;;5.57;65.66;62571.25;5043519;28;20282;-80
2023/03/15 05:59:39;;;;;;;23.13;11.35;;;;;;;5.42;66.03;62553.25;5045651;28;20198;-80
2023/03/15 06:02:06;;;;;;;22.55;10.45;;;;;;;5.50;66.21;62567.06;5039787;28;20226;-80
2023/03/15 06:04:35;;;;;;;21.33;11.23;;;;;;;5.65;66.10;62576.94;5045636;28;20240;-79
2023/03/15 06:07:02;;;;;;;21.05;11.10;;;;;;;5.59;67.49;62578.84;5045619;28;20228;-80
2023/03/15 06:09:29;;;;;;;20.58;10.63;;;;;;;5.65;67.59;62579.47;5052245;28;20206;-81
2023/03/15 06:11:58;;;;;;;17.58;11.20;;;;;;;5.93;66.44;62602.78;5042963;28;20546;-80
2023/03/15 06:14:25;;;;;;;24.45;12.18;;;;;;;6.07;66.78;62627.31;5050755;28;20197;-80
2023/03/15 06:16:52;;;;;;;26.75;11.85;;;;;;;6.32;66.38;62648.03;5047929;28;20238;-80
2023/03/15 06:19:20;;;;;;;30.17;16.83;;;;;;;6.45;63.42;62663.97;5050109;28;20202;-78
2023/03/15 06:21:47;;;;;;;22.42;11.65;;;;;;;6.59;60.39;62675.88;5048489;28;20234;-78
2023/03/15 06:24:14;;;;;;;17.15;10.68;;;;;;;6.86;59.16;62706.78;5050538;28;20209;-79
2023/03/15 06:26:41;;;;;;;16.45;10.55;;;;;;;6.77;58.85;62696.97;5047065;28;20526;-78
2023/03/15 06:29:09;;;;;;;18.73;10.25;;;;;;;6.96;58.07;62714.03;5048047;28;20198;-79
2023/03/15 06:31:39;;;;;;;15.65;9.55;;;;;;;6.89;58.75;62709.34;5030458;28;20214;-79
2023/03/15 06:34:06;;;;;;;12.00;9.38;;;;;;;6.92;58.82;62707.91;5048845;28;20206;-80
2023/03/15 06:36:33;;;;;;;18.88;9.40;;;;;;;7.22;56.94;62737.81;5048911;28;20440;-79
2023/03/15 06:39:01;;;;;;;10.63;8.50;;;;;;;7.26;55.88;62744.47;5051293;28;20198;-79
2023/03/15 06:41:28;;;;;;;12.05;8.45;;;;;;;7.26;56.29;62745.00;5047135;28;20281;-78
2023/03/15 06:43:56;;;;;;;24.55;7.68;;;;;;;7.41;54.87;62759.94;5050481;28;20198;-80
2023/03/15 06:46:24;;;;;;;16.63;7.95;;;;;;;7.49;55.02;62770.75;5049037;28;20228;-79
2023/03/15 06:48:51;;;;;;;11.48;7.10;;;;;;;7.45;54.81;62764.09;5039894;28;20202;-79
2023/03/15 06:51:18;;;;;;;11.48;5.90;;;;;;;7.60;54.81;62785.16;5041813;28;20231;-80
2023/03/15 06:53:45;;;;;;;17.65;6.20;;;;;;;7.45;54.62;62766.63;5031591;28;20406;-79
2023/03/15 06:56:12;;;;;;;10.18;4.82;;;;;;;7.66;54.04;62788.28;5033106;28;20272;-78
2023/03/15 06:58:40;;;;;;;8.57;5.80;;;;;;;7.47;54.34;62766.16;5049719;28;20201;-79
2023/03/15 07:01:07;;;;;;;11.75;5.93;;;;;;;7.65;54.00;62784.72;5049490;28;20445;-80
2023/03/15 07:03:39;;;;;;;10.57;5.47;;;;;;;7.59;54.71;62783.59;5049041;28;20194;-81
2023/03/15 07:06:06;;;;;;;8.77;6.32;;;;;;;7.68;54.23;62788.34;5049965;28;20205;-81
2023/03/15 07:08:33;;;;;;;6.03;4.80;;;;;;;7.77;53.22;62795.09;5054839;28;20194;-81
2023/03/15 07:11:02;;;;;;;10.18;4.97;;;;;;;7.94;53.13;62814.66;5051998;28;20372;-79
2023/03/15 07:13:30;;;;;;;5.20;4.70;;;;;;;8.00;52.27;62823.91;5051846;28;20505;-80
2023/03/15 07:15:57;;;;;;;7.78;4.03;;;;;;;8.14;52.69;62835.81;5052916;28;20240;-80
2023/03/15 07:18:24;;;;;;;7.80;3.50;;;;;;;8.42;51.82;62864.25;5051042;28;20281;-80
2023/03/15 07:20:57;;;;;;;7.70;4.63;;;;;;;8.52;51.09;62874.06;5051056;28;20198;-81
2023/03/15 07:23:24;;;;;;;10.57;3.97;;;;;;;8.62;50.97;62884.91;5051091;28;20198;-78
2023/03/15 07:25:53;;;;;;;3.50;3.20;;;;;;;8.53;50.88;62873.09;5051080;28;20205;-79
2023/03/15 07:28:19;;;;;;;6.05;3.00;;;;;;;8.61;50.02;62885.91;5051465;28;20210;-79
2023/03/15 07:30:59;;;;;;;3.75;3.42;;;;;;;8.63;50.17;62885.44;5051021;28;20229;-79
2023/03/15 07:33:27;;;;;;;3.25;2.70;;;;;;;8.67;49.91;62892.09;5050101;28;20189;-80
2023/03/15 07:35:55;;;;;;;5.32;3.05;;;;;;;9.14;48.74;62940.69;5052794;28;20237;-80
2023/03/15 07:38:25;;;;;;;3.20;2.92;;;;;;;9.12;48.18;62939.13;5034375;28;20429;-79
2023/03/15 07:40:52;;;;;;;2.97;2.75;;;;;;;9.04;48.49;62925.78;5032674;28;20206;-80
2023/03/15 07:43:20;;;;;;;3.70;2.97;;;;;;;8.82;47.88;62910.66;5030988;28;20195;-79
2023/03/15 07:45:48;;;;;;;3.70;3.40;;;;;;;8.51;49.04;62875.59;5032829;28;20260;-77
2023/03/15 07:48:15;;;;;;;5.10;3.90;;;;;;;8.73;48.59;62898.31;5049832;28;20226;-80
2023/03/15 07:50:42;;;;;;;3.97;3.55;;;;;;;8.97;48.47;62923.09;5045508;28;20213;-80
2023/03/15 07:53:09;;;;;;;5.13;3.35;;;;;;;9.11;47.98;62935.03;5046927;28;20219;-80
2023/03/15 07:55:38;;;;;;;7.00;3.92;;;;;;;9.04;47.96;62923.22;5050969;28;20237;-79
2023/03/15 07:58:05;;;;;;;4.63;3.83;;;;;;;9.10;47.36;62934.00;5050077;28;20286;-81
2023/03/15 08:00:32;;;;;;;7.20;4.10;;;;;;;8.77;48.75;62899.88;5046096;28;20202;-79
2023/03/15 08:02:59;;;;;;;10.48;6.18;;;;;;;8.68;48.81;62890.59;5049280;28;20293;-79
2023/03/15 08:05:26;;;;;;;13.05;6.07;;;;;;;8.76;49.94;62898.88;5049526;28;20194;-79
2023/03/15 08:07:53;;;;;;;13.45;5.75;;;;;;;9.25;49.34;62947.47;5051703;28;20538;-80
2023/03/15 08:10:20;;;;;;;15.45;6.30;;;;;;;9.66;47.80;62997.00;5048069;28;20487;-79
2023/03/15 08:12:48;;;;;;;15.27;7.07;;;;;;;9.55;47.13;62980.00;5049383;28;20221;-79
2023/03/15 08:15:16;;;;;;;12.52;6.03;;;;;;;9.88;46.22;63014.66;5050815;28;20270;-80
2023/03/15 08:17:43;;;;;;;8.07;5.72;;;;;;;9.97;46.15;63023.44;5048325;28;20283;-79
2023/03/15 08:20:13;;;;;;;10.35;6.20;;;;;;;10.27;45.99;63055.00;5048709;28;20236;-80
2023/03/15 08:22:43;;;;;;;8.05;5.57;;;;;;;10.55;45.56;63086.03;5052471;28;20210;-79
2023/03/15 08:25:11;;;;;;;8.75;5.43;;;;;;;10.77;44.58;63106.25;5049563;28;20268;-80
2023/03/15 08:27:38;;;;;;;6.25;5.68;;;;;;;10.59;44.18;63087.63;5049492;28;20266;-78
2023/03/15 08:30:10;;;;;;;8.90;5.82;;;;;;;10.82;43.67;63110.91;5050545;28;20210;-80
2023/03/15 08:32:37;;;;;;;8.52;5.28;;;;;;;11.08;43.91;63142.94;5045897;28;20222;-78
2023/03/15 08:35:05;;;;;;;7.25;5.53;;;;;;;11.38;43.53;63171.44;5044982;28;20197;-79
2023/03/15 08:37:32;;;;;;;8.45;5.30;;;;;;;11.49;42.73;63185.91;5051517;28;20297;-80
2023/03/15 08:40:06;;;;;;;8.27;5.38;;;;;;;10.95;43.02;63126.91;5049559;28;20202;-79
2023/03/15 08:42:32;;;;;;;12.77;5.68;;;;;;;11.08;43.40;63140.88;5043185;28;20245;-80
2023/03/15 08:45:00;;;;;;;4.82;4.32;;;;;;;11.16;43.27;63144.09;5035642;28;20250;-78
2023/03/15 08:47:29;;;;;;;6.40;5.35;;;;;;;11.03;42.59;63138.25;5047656;28;20221;-79
2023/03/15 08:49:56;;;;;;;9.85;4.60;;;;;;;10.82;43.57;63113.47;5048722;28;20242;-80
2023/03/15 08:52:23;;;;;;;11.18;5.47;;;;;;;10.62;44.17;63095.81;5048046;28;20214;-80
2023/03/15 08:54:50;;;;;;;9.63;5.60;;;;;;;10.57;43.59;63088.09;5051195;28;20628;-79
2023/03/15 08:57:17;;;;;;;6.50;4.75;;;;;;;10.55;43.98;63082.94;5048882;28;20234;-81
2023/03/15 08:59:44;;;;;;;10.00;5.05;;;;;;;10.66;43.81;63096.88;5041684;28;20517;-79
2023/03/15 09:02:12;;;;;;;6.95;5.32;;;;;;;10.91;43.17;63123.28;5038214;28;20289;-80
2023/03/15 09:04:41;;;;;;;9.52;4.75;;;;;;;10.86;43.46;63120.66;5034070;28;20241;-80
2023/03/15 09:07:08;;;;;;;8.10;4.65;;;;;;;11.23;43.51;63153.38;5048062;28;20241;-79
2023/03/15 09:09:35;;;;;;;9.13;4.57;;;;;;;11.63;42.42;63200.41;5049960;28;20201;-79
2023/03/15 09:12:02;;;;;;;8.20;4.50;;;;;;;11.68;41.34;63202.03;5044302;28;20218;-79
2023/03/15 09:14:29;;;;;;;8.13;4.50;;;;;;;11.31;42.53;63169.28;5048580;28;20202;-78
2023/03/15 09:16:56;;;;;;;6.72;4.22;;;;;;;10.34;43.71;63062.25;5049457;28;20246;-80
2023/03/15 09:19:23;;;;;;;9.95;5.35;;;;;;;10.76;43.34;63107.75;5043620;28;20416;-80
2023/03/15 09:21:52;;;;;;;8.27;4.80;;;;;;;10.74;43.51;63107.72;5047944;28;20225;-79
2023/03/15 09:24:19;;;;;;;7.10;4.55;;;;;;;10.74;42.97;63107.72;5041872;28;20197;-79
2023/03/15 09:26:46;;;;;;;7.93;4.50;;;;;;;10.39;44.42;63072.00;5047687;28;20226;-78
2023/03/15 09:29:13;;;;;;;5.80;4.68;;;;;;;10.57;44.54;63087.56;5047224;28;20198;-79
2023/03/15 09:31:40;;;;;;;5.43;4.75;;;;;;;10.82;43.07;63113.97;5046735;28;20242;-78
2023/03/15 09:34:07;;;;;;;9.80;5.07;;;;;;;11.02;43.16;63134.69;5045768;28;20395;-80
2023/03/15 09:36:34;;;;;;;9.23;5.55;;;;;;;11.28;42.47;63164.16;5028017;28;20257;-80
2023/03/15 09:39:03;;;;;;;16.88;4.88;;;;;;;11.49;42.83;63182.84;5034945;28;20198;-81
2023/03/15 09:41:42;;;;;;;8.23;4.25;;;;;;;11.93;42.28;63227.91;5040855;28;20217;-80
2023/03/15 09:44:31;;;;;;;6.93;4.63;;;;;;;11.92;41.71;63226.88;5051229;28;20201;-80
2023/03/15 09:47:12;;;;;;;7.65;4.05;;;;;;;12.01;41.80;63238.78;5035519;28;20240;-80
2023/03/15 09:49:47;;;;;;;8.77;5.35;;;;;;;12.26;41.80;63262.13;5044281;28;20199;-78
2023/03/15 09:52:25;;;;;;;7.30;4.78;;;;;;;12.00;43.03;63235.69;5049677;28;20221;-80
2023/03/15 09:55:00;;;;;;;5.35;4.82;;;;;;;12.09;42.94;63247.06;5039577;28;20208;-79
2023/03/15 09:57:35;;;;;;;6.32;4.53;;;;;;;12.14;41.86;63250.22;5036523;28;20237;-81
2023/03/15 10:00:10;;;;;;;7.47;4.25;;;;;;;12.34;40.93;63273.47;5049807;28;20248;-82
2023/03/15 10:02:43;;;;;;;9.30;4.80;;;;;;;11.83;41.94;63217.56;5042147;28;20394;-80
2023/03/15 10:05:17;;;;;;;5.70;5.20;;;;;;;11.84;42.31;63218.59;5042639;28;20205;-80
2023/03/15 10:07:45;;;;;;;5.28;4.50;;;;;;;12.18;42.87;63256.91;5052345;28;20271;-79
2023/03/15 10:10:19;;;;;;;7.97;4.90;;;;;;;12.05;41.53;63240.34;5050740;28;20216;-80
2023/03/15 10:12:56;;;;;;;6.40;5.03;;;;;;;12.21;41.10;63256.94;5052389;28;20217;-81
2023/03/15 10:15:32;;;;;;;7.20;4.30;;;;;;;12.06;41.34;63236.28;5053706;28;20198;-79
2023/03/15 10:18:16;;;;;;;5.10;4.70;;;;;;;12.08;41.43;63243.47;5047456;28;20317;-79
2023/03/15 10:20:49;;;;;;;6.95;4.55;;;;;;;12.40;40.91;63276.63;5043443;28;20274;-80
2023/03/15 10:23:20;;;;;;;6.13;4.75;;;;;;;12.36;40.71;63270.47;5053012;28;20213;-80
2023/03/15 10:25:51;;;;;;;5.25;4.75;;;;;;;12.21;40.66;63256.94;5051982;28;20209;-80
2023/03/15 10:28:25;;;;;;;8.43;5.07;;;;;;;12.54;40.05;63289.13;5048082;28;20222;-80
2023/03/15 10:30:52;;;;;;;7.35;4.05;;;;;;;12.73;39.65;63310.84;5051414;28;20232;-78
2023/03/15 10:33:27;;;;;;;8.70;4.47;;;;;;;12.73;39.98;63313.91;5052525;28;20549;-81
2023/03/15 10:35:54;;;;;;;6.53;4.60;;;;;;;12.51;40.33;63288.56;5041978;28;20268;-80
2023/03/15 10:38:23;;;;;;;8.65;4.22;;;;;;;12.44;40.53;63281.28;5053674;28;20202;-79
2023/03/15 10:40:53;;;;;;;11.68;4.50;;;;;;;12.00;41.68;63232.63;5049808;28;20198;-81
2023/03/15 10:43:22;;;;;;;4.90;3.85;;;;;;;12.04;41.75;63239.31;5050768;28;20498;-80
2023/03/15 10:46:01;;;;;;;7.10;4.68;;;;;;;11.92;41.48;63226.88;5050779;28;20402;-79
2023/03/15 10:48:30;;;;;;;4.03;3.65;;;;;;;11.65;42.77;63196.88;5051209;28;20205;-80
2023/03/15 10:50:57;;;;;;;8.68;4.03;;;;;;;12.05;41.79;63238.31;5051248;28;20201;-78
2023/03/15 10:53:25;;;;;;;5.57;4.30;;;;;;;12.37;41.20;63278.63;5052771;28;20194;-78
2023/03/15 10:56:02;;;;;;;5.10;4.07;;;;;;;12.27;41.36;63263.16;5032861;28;20207;-79
2023/03/15 10:58:40;;;;;;;5.35;3.45;;;;;;;11.92;42.51;63229.97;5031432;28;20202;-80
2023/03/15 11:01:08;;;;;;;5.07;3.42;;;;;;;12.21;41.40;63259.50;5031313;28;20245;-80
2023/03/15 11:03:37;;;;;;;4.03;3.72;;;;;;;12.13;41.87;63246.09;5037526;28;20225;-79
2023/03/15 11:06:19;;;;;;;6.03;4.18;;;;;;;11.78;41.67;63207.81;5049259;28;20229;-79
2023/03/15 11:08:46;;;;;;;5.20;3.95;;;;;;;11.50;42.28;63184.38;5050757;28;20188;-79
2023/03/15 11:11:15;;;;;;;4.18;3.42;;;;;;;11.36;44.00;63171.91;5049472;28;20212;-80
2023/03/15 11:13:43;;;;;;;7.13;5.97;;;;;;;11.63;43.55;63195.31;5050764;28;20202;-79
2023/03/15 11:16:21;;;;;;;7.07;3.55;;;;;;;11.71;42.78;63205.13;5045770;28;20205;-80
2023/03/15 11:18:53;;;;;;;4.38;3.80;;;;;;;11.87;42.09;63219.16;5050166;28;20217;-78
2023/03/15 11:21:25;;;;;;;9.90;4.10;;;;;;;12.06;42.36;63239.34;5049338;28;20221;-79
2023/03/15 11:23:53;;;;;;;5.63;3.72;;;;;;;12.30;41.30;63269.34;5044839;28;20514;-79
2023/03/15 11:26:24;;;;;;;7.32;4.05;;;;;;;12.48;40.87;63285.44;5049632;28;20226;-79
2023/03/15 11:28:56;;;;;;;3.90;3.47;;;;;;;12.57;40.43;63296.81;5049978;28;20217;-79
2023/03/15 11:31:27;;;;;;;5.38;4.20;;;;;;;12.61;40.10;63298.91;5050142;28;20217;-80
2023/03/15 11:33:58;;;;;;;6.93;3.65;;;;;;;12.48;40.75;63284.94;5047156;28;20206;-80
2023/03/15 11:36:30;;;;;;;3.97;3.28;;;;;;;12.22;41.37;63257.97;5046447;28;20234;-80
2023/03/15 11:39:00;;;;;;;4.00;3.50;;;;;;;12.25;41.33;63261.09;5031898;28;20193;-79
2023/03/15 11:41:35;;;;;;;3.33;3.10;;;;;;;12.58;40.85;63293.25;5035073;28;20222;-81
2023/03/15 11:44:10;;;;;;;3.63;3.33;;;;;;;12.66;40.35;63301.56;5032612;28;20186;-79